Latest Weather Observations for Lake Macquarie - Cooranbong

IDN60801

Issued at 11:05 am EST Friday 25 July 2014 (issued every 30 minutes, with the page automatically refreshed every 10 minutes)

About weather observations | Map of weather stations | Latest weather observations for NSW | Other Formats
Station Details ID: 061412 Name: LAKE MACQUARIE AWS Lat: -33.09 Lon: 151.46 Height: 6.0 m
Data from the previous 72 hours. | See also: Recent months at Lake Macquarie - Cooranbong
Date/Time
EST
Temp
°C
App
Temp
°C
Dew
Point
Rel
Hum
%
Delta-T
°C
Wind Press
QNH
hPa
Press
MSL
hPa
Rain
since 9 am
mm
Dir
 
Spd
km/h
Gust
km/h
Spd
kts
Gust
kts
25/11:00am 12.6 13.4 12.4 99 0.1 E 0 0 0 0 1023.6 1023.6 0.0
25/10:30am 11.8 11.5 11.6 99 0.1 ESE 4 6 2 3 1023.4 - 0.0
25/10:00am 11.3 10.9 11.1 99 0.1 ESE 4 7 2 4 1023.8 1023.8 0.0
25/09:30am 9.7 9.3 9.6 99 0.0 WSW 2 7 1 4 1024.0 - 0.0
25/09:00am 7.9 7.3 7.6 98 0.1 CALM 0 4 0 2 1023.7 1023.7 0.0
25/08:30am 7.3 6.6 7.0 98 0.1 CALM 0 0 0 0 1022.9 - 0.0
25/08:00am 6.4 5.5 6.1 98 0.1 CALM 0 0 0 0 1022.6 1022.6 0.0
25/07:30am 5.0 3.8 4.6 97 0.2 CALM 0 0 0 0 1022.3 - 0.0
25/07:00am 3.9 2.5 3.5 97 0.2 CALM 0 0 0 0 1021.6 1021.6 0.0
25/06:30am 3.8 2.3 3.2 96 0.2 CALM 0 0 0 0 1021.2 - 0.0
25/06:00am 3.7 2.2 3.1 96 0.2 CALM 0 0 0 0 1020.8 1020.8 0.0
25/05:30am 3.7 2.2 3.1 96 0.2 NW 0 0 0 0 1020.6 - 0.0
25/05:00am 4.1 2.7 3.5 96 0.2 NW 0 0 0 0 1020.5 1020.5 0.0
25/04:30am 4.5 3.2 3.9 96 0.3 CALM 0 0 0 0 1020.5 - 0.0
25/04:00am 4.8 3.5 4.2 96 0.3 CALM 0 0 0 0 1020.4 1020.4 0.0
25/03:30am 5.0 3.8 4.4 96 0.3 CALM 0 0 0 0 1020.4 - 0.0
25/03:00am 5.4 4.2 4.8 96 0.3 NW 0 0 0 0 1020.5 1020.5 0.0
25/02:30am 6.0 5.0 5.4 96 0.3 CALM 0 0 0 0 1020.5 - 0.0
25/02:00am 6.3 5.3 5.7 96 0.3 CALM 0 0 0 0 1020.5 1020.5 0.0
25/01:30am 6.7 5.8 6.1 96 0.3 CALM 0 0 0 0 1020.4 - 0.0
25/01:00am 7.0 6.2 6.4 96 0.3 CALM 0 0 0 0 1020.5 1020.5 0.0
25/12:30am 7.1 6.3 6.5 96 0.3 CALM 0 0 0 0 1020.5 - 0.0
25/12:00am 7.7 7.0 7.1 96 0.3 NW 0 0 0 0 1020.5 1020.5 0.0
 
Date/Time
EST
Temp
°C
App
Temp
°C
Dew
Point
Rel
Hum
%
Delta-T
°C
Wind Press
QNH
hPa
Press
MSL
hPa
Rain
since 9 am
mm
Dir
 
Spd
km/h
Gust
km/h
Spd
kts
Gust
kts
24/11:30pm 7.7 7.0 7.1 96 0.3 CALM 0 0 0 0 1020.8 - 0.0
24/11:00pm 8.0 7.4 7.2 95 0.4 CALM 0 0 0 0 1021.1 1021.1 0.0
24/10:30pm 8.2 7.6 7.4 95 0.4 CALM 0 0 0 0 1021.2 - 0.0
24/10:00pm 8.7 8.2 7.8 94 0.4 CALM 0 0 0 0 1021.3 1021.3 0.0
24/09:30pm 9.5 9.2 8.6 94 0.4 CALM 0 0 0 0 1021.2 - 0.0
24/09:00pm 10.0 9.8 9.1 94 0.4 CALM 0 4 0 2 1021.3 1021.3 0.0
24/08:30pm 11.0 11.0 9.9 93 0.6 CALM 0 4 0 2 1021.4 - 0.0
24/08:00pm 11.4 11.5 10.1 92 0.7 CALM 0 0 0 0 1021.2 1021.2 0.0
24/07:30pm 11.9 12.1 10.6 92 0.7 CALM 0 0 0 0 1021.1 - 0.0
24/07:00pm 11.9 12.0 10.3 90 0.8 CALM 0 0 0 0 1020.9 1020.9 0.0
24/06:30pm 12.7 13.1 11.3 91 0.7 CALM 0 4 0 2 1020.7 - 0.0
24/06:00pm 12.9 13.3 11.3 90 0.8 CALM 0 0 0 0 1020.3 1020.3 0.0
24/05:30pm 13.3 13.7 11.2 87 1.1 CALM 0 0 0 0 1020.2 - 0.0
24/05:00pm 14.2 14.7 11.5 84 1.4 CALM 0 0 0 0 1019.9 1019.9 0.0
24/04:30pm 14.8 15.2 11.4 80 1.8 CALM 0 0 0 0 1019.9 - 0.0
24/04:00pm 15.7 16.1 11.3 75 2.4 CALM 0 0 0 0 1019.7 1019.7 0.0
24/03:30pm 16.1 16.1 11.1 72 2.7 ESE 2 4 1 2 1019.7 - 0.0
24/03:00pm 16.5 15.7 11.0 70 2.9 E 6 7 3 4 1019.7 1019.7 0.0
24/02:30pm 16.7 16.2 10.8 68 3.2 ESE 4 4 2 2 1019.9 - 0.0
24/02:00pm 16.7 16.1 10.3 66 3.4 ESE 4 7 2 4 1020.1 1020.1 0.0
24/01:30pm 16.8 16.9 10.2 65 3.5 CALM 0 2 0 1 1020.4 - 0.0
24/01:00pm 16.1 15.3 9.8 66 3.3 E 4 6 2 3 1020.6 1020.6 0.0
24/12:30pm 16.0 15.5 9.4 65 3.4 N 2 4 1 2 1021.2 - 0.0
24/12:00pm 15.9 15.3 9.1 64 3.5 SE 2 7 1 4 1021.4 1021.4 0.0
24/11:30am 15.7 15.1 10.5 71 2.7 E 4 6 2 3 1021.9 - 0.0
24/11:00am 14.6 14.8 10.4 76 2.2 CALM 0 4 0 2 1022.5 1022.5 0.0
24/10:30am 12.8 13.1 11.0 89 0.9 CALM 0 0 0 0 1022.9 - 0.0
24/10:00am 10.4 10.3 9.6 95 0.4 CALM 0 0 0 0 1023.1 1023.1 0.0
24/09:30am 9.3 9.0 8.8 97 0.2 CALM 0 0 0 0 1023.1 - 0.0
24/09:00am 8.7 8.3 8.4 98 0.1 CALM 0 0 0 0 1022.8 1022.8 0.2
24/08:30am 6.0 5.0 5.7 98 0.1 CALM 0 0 0 0 1022.6 - 0.2
24/08:00am 4.8 3.6 4.4 97 0.2 CALM 0 0 0 0 1022.4 1022.4 0.2
24/07:30am 3.4 1.9 2.8 96 0.2 CALM 0 0 0 0 1022.2 - 0.2
24/07:00am 3.3 1.7 2.7 96 0.2 CALM 0 0 0 0 1022.0 1022.0 0.2
24/06:30am 3.6 2.1 3.2 97 0.2 CALM 0 0 0 0 1021.7 - 0.0
24/06:00am 3.8 2.4 3.4 97 0.2 CALM 0 0 0 0 1021.5 1021.5 0.0
24/05:30am 3.7 2.2 3.1 96 0.2 CALM 0 0 0 0 1021.3 - 0.0
24/05:00am 3.6 2.1 3.0 96 0.2 CALM 0 0 0 0 1021.1 1021.1 0.0
24/04:30am 3.7 2.2 3.1 96 0.2 CALM 0 0 0 0 1021.1 - 0.0
24/04:00am 3.7 2.2 3.1 96 0.2 CALM 0 0 0 0 1021.2 1021.2 0.0
24/03:30am 4.0 2.6 3.4 96 0.2 CALM 0 0 0 0 1021.1 - 0.0
24/03:00am 4.3 2.9 3.7 96 0.2 CALM 0 0 0 0 1021.4 1021.4 0.0
24/02:30am 4.4 3.0 3.8 96 0.2 CALM 0 0 0 0 1021.6 - 0.0
24/02:00am 4.9 3.6 4.3 96 0.3 CALM 0 0 0 0 1021.6 1021.6 0.0
24/01:30am 5.3 4.1 4.7 96 0.3 CALM 0 0 0 0 1021.8 - 0.0
24/01:00am 5.6 4.5 5.0 96 0.3 CALM 0 0 0 0 1022.1 1022.1 0.0
24/12:30am 5.9 4.8 5.2 95 0.3 CALM 0 0 0 0 1022.4 - 0.0
24/12:00am 6.0 5.0 5.4 96 0.3 CALM 0 0 0 0 1022.7 1022.7 0.0
 
Date/Time
EST
Temp
°C
App
Temp
°C
Dew
Point
Rel
Hum
%
Delta-T
°C
Wind Press
QNH
hPa
Press
MSL
hPa
Rain
since 9 am
mm
Dir
 
Spd
km/h
Gust
km/h
Spd
kts
Gust
kts
23/11:30pm 6.1 5.1 5.4 95 0.3 CALM 0 0 0 0 1022.9 - 0.0
23/11:00pm 6.3 5.3 5.6 95 0.3 CALM 0 0 0 0 1023.0 1023.0 0.0
23/10:30pm 6.3 5.3 5.6 95 0.3 CALM 0 2 0 1 1023.2 - 0.0
23/10:00pm 6.8 5.9 5.9 94 0.4 CALM 0 0 0 0 1023.3 1023.3 0.0
23/09:30pm 7.2 6.4 6.5 95 0.3 CALM 0 0 0 0 1023.5 - 0.0
23/09:00pm 7.8 7.1 6.9 94 0.4 CALM 0 0 0 0 1023.7 1023.7 0.0
23/08:30pm 8.5 7.9 7.6 94 0.4 CALM 0 0 0 0 1023.4 - 0.0
23/08:00pm 8.6 8.0 7.5 93 0.5 CALM 0 0 0 0 1023.2 1023.2 0.0
23/07:30pm 9.2 8.8 8.1 93 0.5 CALM 0 0 0 0 1023.0 - 0.0
23/07:00pm 9.7 9.4 8.6 93 0.5 CALM 0 0 0 0 1022.9 1022.9 0.0
23/06:30pm 10.3 10.0 8.6 89 0.8 CALM 0 0 0 0 1022.9 - 0.0
23/06:00pm 11.4 11.3 9.3 87 1.0 CALM 0 0 0 0 1022.7 1022.7 0.0
23/05:30pm 12.4 12.2 9.2 81 1.6 CALM 0 0 0 0 1022.7 - 0.0
23/05:00pm 14.0 13.9 9.6 75 2.2 CALM 0 0 0 0 1022.3 1022.3 0.0
23/04:30pm 15.0 14.2 9.8 71 2.7 ESE 4 7 2 4 1022.0 - 0.0
23/04:00pm 15.8 14.4 9.5 66 3.3 E 7 11 4 6 1021.8 1021.8 0.0
23/03:30pm 16.8 15.6 9.5 62 3.8 ESE 6 9 3 5 1021.8 - 0.0
23/03:00pm 16.6 15.1 9.3 62 3.8 E 7 11 4 6 1021.7 1021.7 0.0
23/02:30pm 16.9 15.3 8.6 58 4.3 E 7 11 4 6 1021.7 - 0.0
23/02:00pm 17.8 16.2 8.6 55 4.7 E 7 11 4 6 1021.9 1021.9 0.0
23/01:30pm 16.8 15.7 8.5 58 4.2 ESE 4 7 2 4 1022.3 - 0.0
23/01:00pm 17.1 15.9 8.0 55 4.6 SE 4 9 2 5 1022.6 1022.6 0.0
23/12:30pm 17.5 15.9 8.9 57 4.5 SE 7 13 4 7 1023.1 - 0.0
23/12:00pm 17.7 16.7 8.8 56 4.6 W 4 9 2 5 1023.8 1023.8 0.0
23/11:30am 16.4 15.3 9.8 65 3.5 ESE 6 9 3 5 1024.5 - 0.0
23/11:00am 16.7 15.7 8.9 60 4.0 WSW 4 9 2 5 1025.0 1025.0 0.0
23/10:30am 16.4 15.1 9.8 65 3.5 SW 7 15 4 8 1025.4 - 0.0
23/10:00am 15.7 15.2 10.9 73 2.5 S 4 7 2 4 1025.6 1025.6 0.0
23/09:30am 13.7 14.2 11.6 87 1.1 CALM 0 0 0 0 1025.5 - 0.0
23/09:00am 10.5 10.3 10.3 99 0.1 N 2 4 1 2 1025.5 1025.5 0.0
23/08:30am 7.2 6.5 6.9 98 0.1 CALM 0 0 0 0 1025.3 - 0.0
23/08:00am 6.0 5.0 5.7 98 0.1 CALM 0 0 0 0 1025.1 1025.1 0.0
23/07:30am 3.0 1.4 2.6 97 0.2 CALM 0 0 0 0 1024.8 - 0.0
23/07:00am 2.3 0.6 1.9 97 0.2 CALM 0 0 0 0 1024.3 1024.3 0.0
23/06:30am 2.4 0.7 2.0 97 0.2 CALM 0 0 0 0 1024.1 - 0.0
23/06:00am 2.6 1.0 2.2 97 0.2 CALM 0 0 0 0 1023.9 1023.9 0.0
23/05:30am 2.6 0.9 2.0 96 0.2 CALM 0 0 0 0 1023.7 - 0.0
23/05:00am 3.0 1.4 2.4 96 0.2 CALM 0 0 0 0 1023.5 1023.5 0.0
23/04:30am 3.1 1.5 2.5 96 0.2 CALM 0 0 0 0 1023.2 - 0.0
23/04:00am 3.3 1.7 2.7 96 0.2 CALM 0 0 0 0 1023.2 1023.2 0.0
23/03:30am 3.6 2.1 3.0 96 0.2 CALM 0 0 0 0 1023.4 - 0.0
23/03:00am 3.7 2.2 3.1 96 0.2 CALM 0 0 0 0 1023.7 1023.7 0.0
23/02:30am 3.8 2.3 3.2 96 0.2 CALM 0 0 0 0 1023.6 - 0.0
23/02:00am 4.2 2.8 3.6 96 0.2 CALM 0 0 0 0 1023.6 1023.6 0.0
23/01:30am 4.2 2.8 3.6 96 0.2 CALM 0 0 0 0 1023.8 - 0.0
23/01:00am 4.3 2.9 3.7 96 0.2 CALM 0 0 0 0 1023.8 1023.8 0.0
23/12:30am 4.5 3.2 3.9 96 0.3 CALM 0 0 0 0 1023.8 - 0.0
23/12:00am 5.0 3.7 4.3 95 0.3 CALM 0 0 0 0 1023.9 1023.9 0.0
 
Date/Time
EST
Temp
°C
App
Temp
°C
Dew
Point
Rel
Hum
%
Delta-T
°C
Wind Press
QNH
hPa
Press
MSL
hPa
Rain
since 9 am
mm
Dir
 
Spd
km/h
Gust
km/h
Spd
kts
Gust
kts
22/11:30pm 5.2 4.0 4.5 95 0.3 CALM 0 0 0 0 1024.2 - 0.0
22/11:00pm 5.7 4.6 5.0 95 0.3 CALM 0 0 0 0 1024.2 1024.2 0.0
22/10:30pm 5.9 4.8 5.2 95 0.3 CALM 0 0 0 0 1024.4 - 0.0
22/10:00pm 6.0 4.9 5.3 95 0.3 CALM 0 0 0 0 1024.2 1024.2 0.0
22/09:30pm 6.6 5.7 5.9 95 0.3 CALM 0 0 0 0 1024.2 - 0.0
22/09:00pm 7.0 6.1 6.1 94 0.4 CALM 0 0 0 0 1024.3 1024.3 0.0
22/08:30pm 7.3 6.5 6.4 94 0.4 CALM 0 0 0 0 1024.3 - 0.0
22/08:00pm 7.6 6.8 6.5 93 0.5 CALM 0 0 0 0 1024.3 1024.3 0.0
22/07:30pm 8.5 7.9 7.4 93 0.5 CALM 0 0 0 0 1024.3 - 0.0
22/07:00pm 9.2 8.6 7.6 90 0.8 CALM 0 0 0 0 1024.2 1024.2 0.0
22/06:30pm 9.9 9.5 8.3 90 0.8 CALM 0 0 0 0 1023.9 - 0.0
22/06:00pm 10.8 10.6 8.9 88 0.9 CALM 0 0 0 0 1023.5 1023.5 0.0
22/05:30pm 12.0 11.7 8.8 81 1.6 CALM 0 0 0 0 1023.1 - 0.0
22/05:00pm 14.0 13.8 9.0 72 2.5 CALM 0 0 0 0 1022.9 1022.9 0.0
22/04:30pm 15.7 14.7 8.9 64 3.5 SE 4 7 2 4 1022.6 - 0.0
22/04:00pm 16.4 14.9 8.4 59 4.1 SE 6 9 3 5 1022.5 1022.5 0.0
22/03:30pm 17.0 15.6 8.7 58 4.3 S 6 9 3 5 1022.4 - 0.0
22/03:00pm 16.9 14.6 7.5 54 4.7 SE 9 17 5 9 1022.2 1022.2 0.0
22/02:30pm 16.3 14.3 8.5 60 4.0 ESE 9 17 5 9 1022.0 - 0.0
22/02:00pm 16.9 15.2 8.3 57 4.4 SE 7 11 4 6 1022.0 1022.0 0.0
22/01:30pm 17.6 16.1 9.2 58 4.4 SSE 7 13 4 7 1022.0 - 0.0
22/01:00pm 16.4 15.1 9.1 62 3.8 SSE 6 11 3 6 1022.3 1022.3 0.0
22/12:30pm 17.7 16.2 9.3 58 4.4 SSE 7 13 4 7 1022.5 - 0.0
22/12:00pm 16.1 15.3 9.8 66 3.3 SSE 4 9 2 5 1023.2 1023.2 0.0
22/11:30am 17.4 16.3 10.1 62 3.9 SW 6 11 3 6 1023.6 - 0.0

Other Formats:

Comma delimited format used in spreadsheet applications
http://www.bom.gov.au/fwo/IDN60801/IDN60801.95767.axf

JavaScript Object Notation format (JSON) in row-major order
http://www.bom.gov.au/fwo/IDN60801/IDN60801.95767.json